sensor_id;sensor_type;location;lat;lon;timestamp;temperature;humidity
38788;DHT22;24536;45.488;12.238;2023-05-07T00:00:37;20.80;82.50
38788;DHT22;24536;45.488;12.238;2023-05-07T00:03:03;20.80;82.70
38788;DHT22;24536;45.488;12.238;2023-05-07T00:05:28;20.80;82.90
38788;DHT22;24536;45.488;12.238;2023-05-07T00:07:54;20.80;83.00
38788;DHT22;24536;45.488;12.238;2023-05-07T00:10:20;20.80;82.90
38788;DHT22;24536;45.488;12.238;2023-05-07T00:12:45;20.80;83.20
38788;DHT22;24536;45.488;12.238;2023-05-07T00:15:11;20.70;83.10
38788;DHT22;24536;45.488;12.238;2023-05-07T00:17:37;20.70;83.20
38788;DHT22;24536;45.488;12.238;2023-05-07T00:20:04;20.70;83.20
38788;DHT22;24536;45.488;12.238;2023-05-07T00:22:31;20.60;83.30
38788;DHT22;24536;45.488;12.238;2023-05-07T00:24:57;20.60;83.40
38788;DHT22;24536;45.488;12.238;2023-05-07T00:27:24;20.60;83.50
38788;DHT22;24536;45.488;12.238;2023-05-07T00:29:49;20.60;83.60
38788;DHT22;24536;45.488;12.238;2023-05-07T00:32:15;20.60;83.70
38788;DHT22;24536;45.488;12.238;2023-05-07T00:34:41;20.60;83.90
38788;DHT22;24536;45.488;12.238;2023-05-07T00:37:07;20.50;83.90
38788;DHT22;24536;45.488;12.238;2023-05-07T00:39:37;20.50;83.90
38788;DHT22;24536;45.488;12.238;2023-05-07T00:42:03;20.50;84.20
38788;DHT22;24536;45.488;12.238;2023-05-07T00:44:29;20.50;84.20
38788;DHT22;24536;45.488;12.238;2023-05-07T00:46:58;20.40;84.20
38788;DHT22;24536;45.488;12.238;2023-05-07T00:49:37;20.40;84.40
38788;DHT22;24536;45.488;12.238;2023-05-07T00:52:05;20.40;84.40
38788;DHT22;24536;45.488;12.238;2023-05-07T00:54:31;20.40;84.50
38788;DHT22;24536;45.488;12.238;2023-05-07T00:56:57;20.40;84.60
38788;DHT22;24536;45.488;12.238;2023-05-07T00:59:23;20.40;84.60
38788;DHT22;24536;45.488;12.238;2023-05-07T01:01:49;20.40;84.60
38788;DHT22;24536;45.488;12.238;2023-05-07T01:04:14;20.40;84.70
38788;DHT22;24536;45.488;12.238;2023-05-07T01:06:40;20.30;84.80
38788;DHT22;24536;45.488;12.238;2023-05-07T01:09:06;20.40;85.00
38788;DHT22;24536;45.488;12.238;2023-05-07T01:11:32;20.30;85.50
38788;DHT22;24536;45.488;12.238;2023-05-07T01:13:59;20.30;85.10
38788;DHT22;24536;45.488;12.238;2023-05-07T01:16:25;20.30;85.10
38788;DHT22;24536;45.488;12.238;2023-05-07T01:18:50;20.30;85.10
38788;DHT22;24536;45.488;12.238;2023-05-07T01:21:18;20.30;85.00
38788;DHT22;24536;45.488;12.238;2023-05-07T01:23:44;20.30;84.80
38788;DHT22;24536;45.488;12.238;2023-05-07T01:26:12;20.20;84.90
38788;DHT22;24536;45.488;12.238;2023-05-07T01:28:37;20.20;84.80
38788;DHT22;24536;45.488;12.238;2023-05-07T01:31:04;20.20;84.80
38788;DHT22;24536;45.488;12.238;2023-05-07T01:33:34;20.10;84.80
38788;DHT22;24536;45.488;12.238;2023-05-07T01:36:00;20.10;84.80
38788;DHT22;24536;45.488;12.238;2023-05-07T01:38:29;20.00;84.60
38788;DHT22;24536;45.488;12.238;2023-05-07T01:40:55;20.00;84.70
38788;DHT22;24536;45.488;12.238;2023-05-07T01:43:21;19.90;84.80
38788;DHT22;24536;45.488;12.238;2023-05-07T01:45:47;19.90;84.90
38788;DHT22;24536;45.488;12.238;2023-05-07T01:48:14;19.90;85.00
38788;DHT22;24536;45.488;12.238;2023-05-07T01:50:41;19.80;85.00
38788;DHT22;24536;45.488;12.238;2023-05-07T01:53:08;19.80;85.00
38788;DHT22;24536;45.488;12.238;2023-05-07T01:55:33;19.70;85.00
38788;DHT22;24536;45.488;12.238;2023-05-07T01:57:59;19.70;85.00
38788;DHT22;24536;45.488;12.238;2023-05-07T02:00:25;19.70;85.10
38788;DHT22;24536;45.488;12.238;2023-05-07T02:02:50;19.60;85.10
38788;DHT22;24536;45.488;12.238;2023-05-07T02:05:18;19.60;85.10
38788;DHT22;24536;45.488;12.238;2023-05-07T02:07:43;19.60;85.40
38788;DHT22;24536;45.488;12.238;2023-05-07T02:10:09;19.50;85.50
38788;DHT22;24536;45.488;12.238;2023-05-07T02:12:35;19.50;85.50
38788;DHT22;24536;45.488;12.238;2023-05-07T02:15:01;19.50;85.50
38788;DHT22;24536;45.488;12.238;2023-05-07T02:17:26;19.50;85.60
38788;DHT22;24536;45.488;12.238;2023-05-07T02:19:52;19.50;85.70
38788;DHT22;24536;45.488;12.238;2023-05-07T02:22:18;19.50;85.70
38788;DHT22;24536;45.488;12.238;2023-05-07T02:24:44;19.50;86.30
38788;DHT22;24536;45.488;12.238;2023-05-07T02:27:10;19.50;85.90
38788;DHT22;24536;45.488;12.238;2023-05-07T02:29:35;19.50;86.10
38788;DHT22;24536;45.488;12.238;2023-05-07T02:32:01;19.50;86.30
38788;DHT22;24536;45.488;12.238;2023-05-07T02:34:26;19.50;86.50
38788;DHT22;24536;45.488;12.238;2023-05-07T02:36:52;19.50;86.30
38788;DHT22;24536;45.488;12.238;2023-05-07T02:39:18;19.60;86.30
38788;DHT22;24536;45.488;12.238;2023-05-07T02:41:43;19.50;86.40
38788;DHT22;24536;45.488;12.238;2023-05-07T02:44:09;19.50;86.50
38788;DHT22;24536;45.488;12.238;2023-05-07T02:46:35;19.60;86.40
38788;DHT22;24536;45.488;12.238;2023-05-07T02:49:00;19.60;86.80
38788;DHT22;24536;45.488;12.238;2023-05-07T02:51:26;19.60;86.00
38788;DHT22;24536;45.488;12.238;2023-05-07T02:53:52;19.60;85.70
38788;DHT22;24536;45.488;12.238;2023-05-07T02:56:18;19.60;85.70
38788;DHT22;24536;45.488;12.238;2023-05-07T02:58:43;19.60;85.90
38788;DHT22;24536;45.488;12.238;2023-05-07T03:01:09;19.60;86.10
38788;DHT22;24536;45.488;12.238;2023-05-07T03:03:36;19.60;86.00
38788;DHT22;24536;45.488;12.238;2023-05-07T03:06:02;19.60;85.70
38788;DHT22;24536;45.488;12.238;2023-05-07T03:08:27;19.60;85.50
38788;DHT22;24536;45.488;12.238;2023-05-07T03:10:53;19.60;85.40
38788;DHT22;24536;45.488;12.238;2023-05-07T03:13:19;19.60;85.20
38788;DHT22;24536;45.488;12.238;2023-05-07T03:15:45;19.60;85.20
38788;DHT22;24536;45.488;12.238;2023-05-07T03:18:10;19.60;85.40
38788;DHT22;24536;45.488;12.238;2023-05-07T03:20:36;19.60;85.30
38788;DHT22;24536;45.488;12.238;2023-05-07T03:23:02;19.50;85.30
38788;DHT22;24536;45.488;12.238;2023-05-07T03:25:28;19.50;85.30
38788;DHT22;24536;45.488;12.238;2023-05-07T03:27:56;19.40;85.10
38788;DHT22;24536;45.488;12.238;2023-05-07T03:30:21;19.50;85.30
38788;DHT22;24536;45.488;12.238;2023-05-07T03:32:47;19.40;85.10
38788;DHT22;24536;45.488;12.238;2023-05-07T03:35:13;19.40;84.90
38788;DHT22;24536;45.488;12.238;2023-05-07T03:37:39;19.40;85.10
38788;DHT22;24536;45.488;12.238;2023-05-07T03:40:05;19.40;85.40
38788;DHT22;24536;45.488;12.238;2023-05-07T03:42:31;19.40;85.30
38788;DHT22;24536;45.488;12.238;2023-05-07T03:44:57;19.40;85.60
38788;DHT22;24536;45.488;12.238;2023-05-07T03:47:22;19.30;85.70
38788;DHT22;24536;45.488;12.238;2023-05-07T03:49:48;19.30;85.70
38788;DHT22;24536;45.488;12.238;2023-05-07T03:52:15;19.40;85.70
38788;DHT22;24536;45.488;12.238;2023-05-07T03:54:41;19.30;85.60
38788;DHT22;24536;45.488;12.238;2023-05-07T03:57:07;19.30;85.90
38788;DHT22;24536;45.488;12.238;2023-05-07T03:59:32;19.30;85.90
38788;DHT22;24536;45.488;12.238;2023-05-07T04:01:58;19.30;85.70
38788;DHT22;24536;45.488;12.238;2023-05-07T04:04:24;19.30;85.70
38788;DHT22;24536;45.488;12.238;2023-05-07T04:06:49;19.30;85.90
38788;DHT22;24536;45.488;12.238;2023-05-07T04:09:15;19.30;85.90
38788;DHT22;24536;45.488;12.238;2023-05-07T04:11:40;19.30;85.80
38788;DHT22;24536;45.488;12.238;2023-05-07T04:14:06;19.20;85.90
38788;DHT22;24536;45.488;12.238;2023-05-07T04:16:32;19.20;85.90
38788;DHT22;24536;45.488;12.238;2023-05-07T04:18:57;19.20;85.90
38788;DHT22;24536;45.488;12.238;2023-05-07T04:21:23;19.20;85.90
38788;DHT22;24536;45.488;12.238;2023-05-07T04:23:49;19.20;86.00
38788;DHT22;24536;45.488;12.238;2023-05-07T04:26:15;19.20;86.30
38788;DHT22;24536;45.488;12.238;2023-05-07T04:28:41;19.10;86.10
38788;DHT22;24536;45.488;12.238;2023-05-07T04:31:07;19.20;86.10
38788;DHT22;24536;45.488;12.238;2023-05-07T04:33:33;19.10;86.10
38788;DHT22;24536;45.488;12.238;2023-05-07T04:36:01;19.10;86.40
38788;DHT22;24536;45.488;12.238;2023-05-07T04:38:29;19.10;86.50
38788;DHT22;24536;45.488;12.238;2023-05-07T04:40:55;19.20;86.40
38788;DHT22;24536;45.488;12.238;2023-05-07T04:43:22;19.20;86.30
38788;DHT22;24536;45.488;12.238;2023-05-07T04:45:50;19.20;86.00
38788;DHT22;24536;45.488;12.238;2023-05-07T04:48:16;19.20;86.00
38788;DHT22;24536;45.488;12.238;2023-05-07T04:50:46;19.30;86.00
38788;DHT22;24536;45.488;12.238;2023-05-07T04:53:12;19.30;85.80
38788;DHT22;24536;45.488;12.238;2023-05-07T04:55:37;19.30;85.80
38788;DHT22;24536;45.488;12.238;2023-05-07T04:58:03;19.30;85.90
38788;DHT22;24536;45.488;12.238;2023-05-07T05:00:30;19.40;86.00
38788;DHT22;24536;45.488;12.238;2023-05-07T05:02:56;19.40;85.80
38788;DHT22;24536;45.488;12.238;2023-05-07T05:05:21;19.40;85.50
38788;DHT22;24536;45.488;12.238;2023-05-07T05:07:47;19.50;85.70
38788;DHT22;24536;45.488;12.238;2023-05-07T05:10:13;19.40;85.60
38788;DHT22;24536;45.488;12.238;2023-05-07T05:12:38;19.40;85.80
38788;DHT22;24536;45.488;12.238;2023-05-07T05:15:05;19.50;86.00
38788;DHT22;24536;45.488;12.238;2023-05-07T05:17:32;19.50;86.00
38788;DHT22;24536;45.488;12.238;2023-05-07T05:19:59;19.50;86.00
38788;DHT22;24536;45.488;12.238;2023-05-07T05:22:25;19.60;86.20
38788;DHT22;24536;45.488;12.238;2023-05-07T05:24:51;19.60;86.10
38788;DHT22;24536;45.488;12.238;2023-05-07T05:27:16;19.60;86.30
38788;DHT22;24536;45.488;12.238;2023-05-07T05:29:42;19.60;86.50
38788;DHT22;24536;45.488;12.238;2023-05-07T05:32:08;19.60;86.60
38788;DHT22;24536;45.488;12.238;2023-05-07T05:34:33;19.60;86.80
38788;DHT22;24536;45.488;12.238;2023-05-07T05:36:59;19.60;86.80
38788;DHT22;24536;45.488;12.238;2023-05-07T05:39:25;19.70;86.90
38788;DHT22;24536;45.488;12.238;2023-05-07T05:41:50;19.70;87.10
38788;DHT22;24536;45.488;12.238;2023-05-07T05:44:16;19.80;87.30
38788;DHT22;24536;45.488;12.238;2023-05-07T05:46:42;19.90;87.50
38788;DHT22;24536;45.488;12.238;2023-05-07T05:49:07;19.90;87.50
38788;DHT22;24536;45.488;12.238;2023-05-07T05:51:34;20.00;87.50
38788;DHT22;24536;45.488;12.238;2023-05-07T05:53:59;20.00;87.50
38788;DHT22;24536;45.488;12.238;2023-05-07T05:56:25;20.00;87.10
38788;DHT22;24536;45.488;12.238;2023-05-07T05:58:51;20.00;87.10
38788;DHT22;24536;45.488;12.238;2023-05-07T06:01:17;20.00;86.60
38788;DHT22;24536;45.488;12.238;2023-05-07T06:03:44;20.10;86.10
38788;DHT22;24536;45.488;12.238;2023-05-07T06:06:09;20.10;85.90
38788;DHT22;24536;45.488;12.238;2023-05-07T06:08:35;20.20;85.70
38788;DHT22;24536;45.488;12.238;2023-05-07T06:11:01;20.20;85.20
38788;DHT22;24536;45.488;12.238;2023-05-07T06:13:27;20.30;84.80
38788;DHT22;24536;45.488;12.238;2023-05-07T06:15:53;20.40;84.40
38788;DHT22;24536;45.488;12.238;2023-05-07T06:18:19;20.40;84.00
38788;DHT22;24536;45.488;12.238;2023-05-07T06:20:44;20.50;83.60
38788;DHT22;24536;45.488;12.238;2023-05-07T06:23:10;20.50;83.20
38788;DHT22;24536;45.488;12.238;2023-05-07T06:25:35;20.60;83.00
38788;DHT22;24536;45.488;12.238;2023-05-07T06:28:01;20.60;82.60
38788;DHT22;24536;45.488;12.238;2023-05-07T06:30:27;20.70;82.20
38788;DHT22;24536;45.488;12.238;2023-05-07T06:32:52;20.70;81.70
38788;DHT22;24536;45.488;12.238;2023-05-07T06:35:18;20.80;81.60
38788;DHT22;24536;45.488;12.238;2023-05-07T06:37:44;20.90;81.10
38788;DHT22;24536;45.488;12.238;2023-05-07T06:40:10;20.90;81.00
38788;DHT22;24536;45.488;12.238;2023-05-07T06:42:36;21.00;80.60
38788;DHT22;24536;45.488;12.238;2023-05-07T06:45:03;21.00;80.20
38788;DHT22;24536;45.488;12.238;2023-05-07T06:47:29;21.10;80.00
38788;DHT22;24536;45.488;12.238;2023-05-07T06:49:54;21.10;79.60
38788;DHT22;24536;45.488;12.238;2023-05-07T06:52:20;21.20;79.30
38788;DHT22;24536;45.488;12.238;2023-05-07T06:54:46;21.20;79.10
38788;DHT22;24536;45.488;12.238;2023-05-07T06:57:11;21.30;79.20
38788;DHT22;24536;45.488;12.238;2023-05-07T06:59:37;21.30;79.00
38788;DHT22;24536;45.488;12.238;2023-05-07T07:02:03;21.40;78.80
38788;DHT22;24536;45.488;12.238;2023-05-07T07:04:32;21.40;78.30
38788;DHT22;24536;45.488;12.238;2023-05-07T07:06:57;21.50;78.00
38788;DHT22;24536;45.488;12.238;2023-05-07T07:09:23;21.50;77.90
38788;DHT22;24536;45.488;12.238;2023-05-07T07:11:48;21.60;77.00
38788;DHT22;24536;45.488;12.238;2023-05-07T07:14:14;21.60;77.40
38788;DHT22;24536;45.488;12.238;2023-05-07T07:16:40;21.60;77.20
38788;DHT22;24536;45.488;12.238;2023-05-07T07:19:06;21.70;77.10
38788;DHT22;24536;45.488;12.238;2023-05-07T07:21:32;21.80;76.50
38788;DHT22;24536;45.488;12.238;2023-05-07T07:23:57;21.80;76.50
38788;DHT22;24536;45.488;12.238;2023-05-07T07:26:23;21.90;76.40
38788;DHT22;24536;45.488;12.238;2023-05-07T07:28:48;21.90;76.20
38788;DHT22;24536;45.488;12.238;2023-05-07T07:31:14;22.00;76.50
38788;DHT22;24536;45.488;12.238;2023-05-07T07:33:40;22.00;76.30
38788;DHT22;24536;45.488;12.238;2023-05-07T07:36:06;22.10;76.40
38788;DHT22;24536;45.488;12.238;2023-05-07T07:38:33;22.20;76.40
38788;DHT22;24536;45.488;12.238;2023-05-07T07:40:58;22.30;76.40
38788;DHT22;24536;45.488;12.238;2023-05-07T07:43:24;22.30;76.20
38788;DHT22;24536;45.488;12.238;2023-05-07T07:45:49;22.40;75.70
38788;DHT22;24536;45.488;12.238;2023-05-07T07:48:15;22.50;73.00
38788;DHT22;24536;45.488;12.238;2023-05-07T07:50:41;22.50;71.90
38788;DHT22;24536;45.488;12.238;2023-05-07T07:53:07;22.60;70.30
38788;DHT22;24536;45.488;12.238;2023-05-07T07:55:32;22.70;70.20
38788;DHT22;24536;45.488;12.238;2023-05-07T07:58:03;22.80;70.70
38788;DHT22;24536;45.488;12.238;2023-05-07T08:00:28;22.90;70.20
38788;DHT22;24536;45.488;12.238;2023-05-07T08:02:54;22.90;71.10
38788;DHT22;24536;45.488;12.238;2023-05-07T08:05:19;22.90;71.00
38788;DHT22;24536;45.488;12.238;2023-05-07T08:07:45;23.00;70.80
38788;DHT22;24536;45.488;12.238;2023-05-07T08:10:11;23.00;71.50
38788;DHT22;24536;45.488;12.238;2023-05-07T08:12:37;23.10;71.40
38788;DHT22;24536;45.488;12.238;2023-05-07T08:15:03;23.30;71.10
38788;DHT22;24536;45.488;12.238;2023-05-07T08:17:29;23.40;71.10
38788;DHT22;24536;45.488;12.238;2023-05-07T08:19:54;23.40;71.40
38788;DHT22;24536;45.488;12.238;2023-05-07T08:22:20;23.50;71.30
38788;DHT22;24536;45.488;12.238;2023-05-07T08:24:47;23.60;71.30
38788;DHT22;24536;45.488;12.238;2023-05-07T08:27:12;23.60;71.40
38788;DHT22;24536;45.488;12.238;2023-05-07T08:29:38;23.70;71.40
38788;DHT22;24536;45.488;12.238;2023-05-07T08:32:04;23.80;71.40
38788;DHT22;24536;45.488;12.238;2023-05-07T08:34:29;23.80;71.60
38788;DHT22;24536;45.488;12.238;2023-05-07T08:36:55;23.90;72.20
38788;DHT22;24536;45.488;12.238;2023-05-07T08:39:21;24.00;72.50
38788;DHT22;24536;45.488;12.238;2023-05-07T08:41:48;24.10;72.40
38788;DHT22;24536;45.488;12.238;2023-05-07T08:44:17;24.20;72.60
38788;DHT22;24536;45.488;12.238;2023-05-07T08:46:45;24.30;72.60
38788;DHT22;24536;45.488;12.238;2023-05-07T08:49:13;24.40;72.80
38788;DHT22;24536;45.488;12.238;2023-05-07T08:51:41;24.40;72.70
38788;DHT22;24536;45.488;12.238;2023-05-07T08:54:07;24.50;72.30
38788;DHT22;24536;45.488;12.238;2023-05-07T08:56:34;24.60;71.30
38788;DHT22;24536;45.488;12.238;2023-05-07T08:59:00;24.60;71.10
38788;DHT22;24536;45.488;12.238;2023-05-07T09:01:26;24.70;70.90
38788;DHT22;24536;45.488;12.238;2023-05-07T09:03:52;24.70;70.00
38788;DHT22;24536;45.488;12.238;2023-05-07T09:06:19;24.70;69.80
38788;DHT22;24536;45.488;12.238;2023-05-07T09:08:50;24.80;69.80
38788;DHT22;24536;45.488;12.238;2023-05-07T09:11:16;24.80;69.90
38788;DHT22;24536;45.488;12.238;2023-05-07T09:13:44;24.90;69.10
38788;DHT22;24536;45.488;12.238;2023-05-07T09:16:13;25.00;68.00
38788;DHT22;24536;45.488;12.238;2023-05-07T09:18:43;25.10;67.90
38788;DHT22;24536;45.488;12.238;2023-05-07T09:21:15;25.00;67.40
38788;DHT22;24536;45.488;12.238;2023-05-07T09:23:41;25.10;66.80
38788;DHT22;24536;45.488;12.238;2023-05-07T09:26:07;25.10;65.20
38788;DHT22;24536;45.488;12.238;2023-05-07T09:28:39;25.20;64.20
38788;DHT22;24536;45.488;12.238;2023-05-07T09:31:05;25.10;64.60
38788;DHT22;24536;45.488;12.238;2023-05-07T09:33:31;25.20;64.50
38788;DHT22;24536;45.488;12.238;2023-05-07T09:35:57;25.20;64.70
38788;DHT22;24536;45.488;12.238;2023-05-07T09:38:22;25.20;64.20
38788;DHT22;24536;45.488;12.238;2023-05-07T09:41:08;25.20;64.10
38788;DHT22;24536;45.488;12.238;2023-05-07T09:43:35;25.20;63.30
38788;DHT22;24536;45.488;12.238;2023-05-07T09:46:20;25.10;63.80
38788;DHT22;24536;45.488;12.238;2023-05-07T09:48:52;25.10;63.90
38788;DHT22;24536;45.488;12.238;2023-05-07T09:51:22;25.10;64.20
38788;DHT22;24536;45.488;12.238;2023-05-07T09:53:52;25.10;63.70
38788;DHT22;24536;45.488;12.238;2023-05-07T09:56:18;25.10;63.40
38788;DHT22;24536;45.488;12.238;2023-05-07T09:58:45;25.10;63.60
38788;DHT22;24536;45.488;12.238;2023-05-07T10:01:12;25.10;63.10
38788;DHT22;24536;45.488;12.238;2023-05-07T10:03:40;25.20;63.10
38788;DHT22;24536;45.488;12.238;2023-05-07T10:06:09;25.20;63.20
38788;DHT22;24536;45.488;12.238;2023-05-07T10:08:36;25.30;63.40
38788;DHT22;24536;45.488;12.238;2023-05-07T10:11:05;25.40;63.50
38788;DHT22;24536;45.488;12.238;2023-05-07T10:13:33;25.50;63.30
38788;DHT22;24536;45.488;12.238;2023-05-07T10:16:02;25.70;62.60
38788;DHT22;24536;45.488;12.238;2023-05-07T10:18:33;25.80;61.70
38788;DHT22;24536;45.488;12.238;2023-05-07T10:21:20;25.90;61.90
38788;DHT22;24536;45.488;12.238;2023-05-07T10:23:50;26.00;62.20
38788;DHT22;24536;45.488;12.238;2023-05-07T10:26:18;26.20;61.90
38788;DHT22;24536;45.488;12.238;2023-05-07T10:28:50;26.40;61.80
38788;DHT22;24536;45.488;12.238;2023-05-07T10:31:23;26.60;61.50
38788;DHT22;24536;45.488;12.238;2023-05-07T10:33:57;26.80;60.50
38788;DHT22;24536;45.488;12.238;2023-05-07T10:36:24;26.90;60.60
38788;DHT22;24536;45.488;12.238;2023-05-07T10:38:51;27.00;60.20
38788;DHT22;24536;45.488;12.238;2023-05-07T10:41:17;27.10;60.30
38788;DHT22;24536;45.488;12.238;2023-05-07T10:43:45;27.30;60.20
38788;DHT22;24536;45.488;12.238;2023-05-07T10:46:17;27.40;59.60
38788;DHT22;24536;45.488;12.238;2023-05-07T10:51:29;27.40;57.40
38788;DHT22;24536;45.488;12.238;2023-05-07T10:56:40;27.60;57.20
38788;DHT22;24536;45.488;12.238;2023-05-07T11:02:04;27.80;55.60
38788;DHT22;24536;45.488;12.238;2023-05-07T11:04:31;27.90;54.40
38788;DHT22;24536;45.488;12.238;2023-05-07T11:15:09;28.10;50.50
38788;DHT22;24536;45.488;12.238;2023-05-07T11:17:52;28.20;51.80
38788;DHT22;24536;45.488;12.238;2023-05-07T11:20:19;28.40;51.90
38788;DHT22;24536;45.488;12.238;2023-05-07T11:22:45;28.50;51.70
38788;DHT22;24536;45.488;12.238;2023-05-07T11:25:10;28.60;51.70
38788;DHT22;24536;45.488;12.238;2023-05-07T11:27:42;28.80;51.60
38788;DHT22;24536;45.488;12.238;2023-05-07T11:30:09;28.90;51.70
38788;DHT22;24536;45.488;12.238;2023-05-07T11:32:35;29.20;51.90
38788;DHT22;24536;45.488;12.238;2023-05-07T11:35:01;29.40;50.60
38788;DHT22;24536;45.488;12.238;2023-05-07T11:37:27;29.50;50.50
38788;DHT22;24536;45.488;12.238;2023-05-07T11:40:07;29.50;50.30
38788;DHT22;24536;45.488;12.238;2023-05-07T11:45:00;29.60;49.90
38788;DHT22;24536;45.488;12.238;2023-05-07T11:47:26;29.80;49.30
38788;DHT22;24536;45.488;12.238;2023-05-07T11:49:55;30.20;49.30
38788;DHT22;24536;45.488;12.238;2023-05-07T11:52:22;30.50;48.80
38788;DHT22;24536;45.488;12.238;2023-05-07T11:54:53;30.70;47.80
38788;DHT22;24536;45.488;12.238;2023-05-07T11:57:20;31.00;47.40
38788;DHT22;24536;45.488;12.238;2023-05-07T11:59:46;31.30;47.20
38788;DHT22;24536;45.488;12.238;2023-05-07T12:02:15;31.50;46.40
38788;DHT22;24536;45.488;12.238;2023-05-07T12:04:41;31.70;45.90
38788;DHT22;24536;45.488;12.238;2023-05-07T12:07:14;31.90;46.30
38788;DHT22;24536;45.488;12.238;2023-05-07T12:09:41;32.10;44.80
38788;DHT22;24536;45.488;12.238;2023-05-07T12:12:07;32.20;44.70
38788;DHT22;24536;45.488;12.238;2023-05-07T12:14:36;32.20;44.40
38788;DHT22;24536;45.488;12.238;2023-05-07T12:17:03;32.10;43.90
38788;DHT22;24536;45.488;12.238;2023-05-07T12:19:30;31.90;44.70
38788;DHT22;24536;45.488;12.238;2023-05-07T12:21:56;31.80;44.30
38788;DHT22;24536;45.488;12.238;2023-05-07T12:24:22;31.60;44.40
38788;DHT22;24536;45.488;12.238;2023-05-07T12:26:48;31.50;44.90
38788;DHT22;24536;45.488;12.238;2023-05-07T12:29:14;31.40;45.20
38788;DHT22;24536;45.488;12.238;2023-05-07T12:31:41;31.20;45.20
38788;DHT22;24536;45.488;12.238;2023-05-07T12:34:07;31.10;45.60
38788;DHT22;24536;45.488;12.238;2023-05-07T12:36:37;31.10;45.50
38788;DHT22;24536;45.488;12.238;2023-05-07T12:39:07;31.00;44.80
38788;DHT22;24536;45.488;12.238;2023-05-07T12:41:57;31.20;45.10
38788;DHT22;24536;45.488;12.238;2023-05-07T12:44:30;31.40;44.60
38788;DHT22;24536;45.488;12.238;2023-05-07T12:46:55;31.60;44.00
38788;DHT22;24536;45.488;12.238;2023-05-07T12:49:22;31.70;42.90
38788;DHT22;24536;45.488;12.238;2023-05-07T12:51:48;31.60;41.60
38788;DHT22;24536;45.488;12.238;2023-05-07T12:54:31;31.30;42.30
38788;DHT22;24536;45.488;12.238;2023-05-07T12:57:09;31.00;42.80
38788;DHT22;24536;45.488;12.238;2023-05-07T12:59:38;30.70;41.20
38788;DHT22;24536;45.488;12.238;2023-05-07T13:02:05;30.50;43.60
38788;DHT22;24536;45.488;12.238;2023-05-07T13:04:31;30.50;43.40
38788;DHT22;24536;45.488;12.238;2023-05-07T13:06:57;30.60;43.40
38788;DHT22;24536;45.488;12.238;2023-05-07T13:09:23;30.70;43.60
38788;DHT22;24536;45.488;12.238;2023-05-07T13:11:55;30.70;42.30
38788;DHT22;24536;45.488;12.238;2023-05-07T13:14:20;30.70;41.30
38788;DHT22;24536;45.488;12.238;2023-05-07T13:16:47;30.70;41.00
38788;DHT22;24536;45.488;12.238;2023-05-07T13:19:13;30.70;40.80
38788;DHT22;24536;45.488;12.238;2023-05-07T13:21:42;30.60;40.20
38788;DHT22;24536;45.488;12.238;2023-05-07T13:24:08;30.50;41.20
38788;DHT22;24536;45.488;12.238;2023-05-07T13:26:34;30.40;41.50
38788;DHT22;24536;45.488;12.238;2023-05-07T13:29:00;30.40;42.10
38788;DHT22;24536;45.488;12.238;2023-05-07T13:31:25;30.30;42.80
38788;DHT22;24536;45.488;12.238;2023-05-07T13:33:51;30.30;42.80
38788;DHT22;24536;45.488;12.238;2023-05-07T13:36:18;30.40;43.50
38788;DHT22;24536;45.488;12.238;2023-05-07T13:38:43;30.40;43.40
38788;DHT22;24536;45.488;12.238;2023-05-07T13:41:09;30.40;43.20
38788;DHT22;24536;45.488;12.238;2023-05-07T13:43:35;30.40;43.00
38788;DHT22;24536;45.488;12.238;2023-05-07T13:46:00;30.50;43.20
38788;DHT22;24536;45.488;12.238;2023-05-07T13:52:24;30.50;43.10
38788;DHT22;24536;45.488;12.238;2023-05-07T13:54:50;30.50;42.60
38788;DHT22;24536;45.488;12.238;2023-05-07T13:57:18;30.40;43.10
38788;DHT22;24536;45.488;12.238;2023-05-07T13:59:44;30.40;41.90
38788;DHT22;24536;45.488;12.238;2023-05-07T14:02:10;30.30;42.00
38788;DHT22;24536;45.488;12.238;2023-05-07T14:04:36;30.20;41.30
38788;DHT22;24536;45.488;12.238;2023-05-07T14:07:02;30.10;41.70
38788;DHT22;24536;45.488;12.238;2023-05-07T14:09:28;30.00;43.00
38788;DHT22;24536;45.488;12.238;2023-05-07T14:11:54;29.90;43.20
38788;DHT22;24536;45.488;12.238;2023-05-07T14:14:20;29.80;43.50
38788;DHT22;24536;45.488;12.238;2023-05-07T14:16:45;29.70;43.90
38788;DHT22;24536;45.488;12.238;2023-05-07T14:19:12;29.60;44.30
38788;DHT22;24536;45.488;12.238;2023-05-07T14:21:37;29.40;44.50
38788;DHT22;24536;45.488;12.238;2023-05-07T14:24:03;29.30;45.00
38788;DHT22;24536;45.488;12.238;2023-05-07T14:26:29;29.20;45.20
38788;DHT22;24536;45.488;12.238;2023-05-07T14:28:55;28.90;45.00
38788;DHT22;24536;45.488;12.238;2023-05-07T14:31:23;28.80;44.80
38788;DHT22;24536;45.488;12.238;2023-05-07T14:33:49;28.60;45.50
38788;DHT22;24536;45.488;12.238;2023-05-07T14:36:18;28.40;46.40
38788;DHT22;24536;45.488;12.238;2023-05-07T14:38:47;28.30;47.00
38788;DHT22;24536;45.488;12.238;2023-05-07T14:41:13;28.10;47.80
38788;DHT22;24536;45.488;12.238;2023-05-07T14:43:38;28.10;48.10
38788;DHT22;24536;45.488;12.238;2023-05-07T14:46:04;27.90;47.40
38788;DHT22;24536;45.488;12.238;2023-05-07T14:48:34;27.90;47.30
38788;DHT22;24536;45.488;12.238;2023-05-07T14:51:00;27.80;47.10
38788;DHT22;24536;45.488;12.238;2023-05-07T14:53:26;27.70;46.70
38788;DHT22;24536;45.488;12.238;2023-05-07T14:55:51;27.60;47.00
38788;DHT22;24536;45.488;12.238;2023-05-07T14:58:17;27.50;47.20
38788;DHT22;24536;45.488;12.238;2023-05-07T15:00:43;27.40;46.50
38788;DHT22;24536;45.488;12.238;2023-05-07T15:03:10;27.30;46.60
38788;DHT22;24536;45.488;12.238;2023-05-07T15:05:36;27.20;46.30
38788;DHT22;24536;45.488;12.238;2023-05-07T15:08:02;27.10;46.50
38788;DHT22;24536;45.488;12.238;2023-05-07T15:10:28;27.10;47.00
38788;DHT22;24536;45.488;12.238;2023-05-07T15:13:15;27.00;47.30
38788;DHT22;24536;45.488;12.238;2023-05-07T15:15:48;26.90;47.00
38788;DHT22;24536;45.488;12.238;2023-05-07T15:18:15;26.90;47.00
38788;DHT22;24536;45.488;12.238;2023-05-07T15:20:41;26.80;47.60
38788;DHT22;24536;45.488;12.238;2023-05-07T15:23:08;26.80;48.30
38788;DHT22;24536;45.488;12.238;2023-05-07T15:25:38;26.80;48.80
38788;DHT22;24536;45.488;12.238;2023-05-07T15:28:04;26.70;49.00
38788;DHT22;24536;45.488;12.238;2023-05-07T15:30:29;26.70;49.00
38788;DHT22;24536;45.488;12.238;2023-05-07T15:32:55;26.70;49.10
38788;DHT22;24536;45.488;12.238;2023-05-07T15:35:21;26.70;49.20